createdAt,value
2017-08-04T00:02:03.475Z,22.50
2017-08-04T00:04:31.752Z,22.50
2017-08-04T00:06:59.997Z,22.50
2017-08-04T00:09:27.466Z,22.50
2017-08-04T00:11:54.978Z,22.50
2017-08-04T00:14:22.454Z,22.50
2017-08-04T00:16:49.966Z,22.40
2017-08-04T00:19:18.235Z,22.30
2017-08-04T00:21:46.512Z,22.30
2017-08-04T00:24:14.794Z,22.30
2017-08-04T00:26:43.045Z,22.30
2017-08-04T00:29:10.533Z,22.30
2017-08-04T00:31:38.089Z,22.30
2017-08-04T00:34:05.577Z,22.30
2017-08-04T00:36:33.107Z,22.20
2017-08-04T00:39:01.372Z,22.20
2017-08-04T00:41:28.854Z,22.20
2017-08-04T00:43:56.364Z,22.20
2017-08-04T00:46:23.854Z,22.20
2017-08-04T00:48:52.088Z,22.10
2017-08-04T00:51:19.586Z,22.10
2017-08-04T00:53:47.862Z,22.20
2017-08-04T00:56:16.230Z,22.10
2017-08-04T00:58:43.795Z,22.10
2017-08-04T01:01:12.089Z,22.10
2017-08-04T01:03:40.341Z,22.10
2017-08-04T01:06:07.910Z,22.00
2017-08-04T01:08:36.145Z,22.10
2017-08-04T01:11:03.759Z,22.10
2017-08-04T01:13:32.030Z,22.00
2017-08-04T01:16:00.311Z,22.00
2017-08-04T01:18:27.806Z,22.00
2017-08-04T01:20:55.282Z,22.00
2017-08-04T01:23:22.773Z,22.00
2017-08-04T01:25:51.031Z,21.80
2017-08-04T01:28:18.609Z,21.80
2017-08-04T01:30:46.848Z,21.60
2017-08-04T01:33:14.358Z,21.60
2017-08-04T01:35:41.897Z,21.60
2017-08-04T01:38:09.464Z,21.50
2017-08-04T01:40:37.756Z,21.60
2017-08-04T01:43:06.006Z,21.50
2017-08-04T01:45:33.491Z,21.50
2017-08-04T01:48:01.027Z,21.50
2017-08-04T01:50:29.315Z,21.30
2017-08-04T01:52:57.586Z,21.30
2017-08-04T01:55:25.861Z,21.50
2017-08-04T01:57:54.099Z,21.50
2017-08-04T02:00:21.593Z,21.50
2017-08-04T02:02:49.868Z,21.50
2017-08-04T02:05:17.923Z,21.40
2017-08-04T02:07:45.395Z,21.50
2017-08-04T02:10:14.283Z,21.50
2017-08-04T02:12:42.577Z,21.40
2017-08-04T02:15:10.840Z,21.40
2017-08-04T02:17:39.095Z,21.30
2017-08-04T02:20:06.576Z,21.30
2017-08-04T02:22:34.844Z,21.30
2017-08-04T02:25:02.415Z,21.30
2017-08-04T02:27:30.691Z,21.40
2017-08-04T02:29:58.937Z,21.30
2017-08-04T02:32:26.530Z,21.30
2017-08-04T02:34:54.812Z,21.50
2017-08-04T02:37:22.315Z,21.40
2017-08-04T02:39:49.802Z,21.40
2017-08-04T02:42:17.379Z,21.30
2017-08-04T02:44:45.621Z,21.30
2017-08-04T02:47:19.864Z,21.20
2017-08-04T02:49:47.435Z,21.20
2017-08-04T02:52:15.698Z,21.20
2017-08-04T02:54:43.268Z,21.20
2017-08-04T02:57:11.543Z,21.30
2017-08-04T02:59:39.807Z,21.30
2017-08-04T03:02:08.094Z,21.20
2017-08-04T03:04:36.367Z,21.30
2017-08-04T03:07:04.600Z,21.20
2017-08-04T03:09:32.093Z,21.20
2017-08-04T03:11:59.571Z,21.20
2017-08-04T03:14:27.843Z,21.10
2017-08-04T03:16:56.072Z,21.20
2017-08-04T03:19:23.572Z,21.20
2017-08-04T03:21:51.855Z,21.40
2017-08-04T03:24:20.121Z,21.40
2017-08-04T03:26:48.386Z,21.40
2017-08-04T03:29:15.957Z,21.40
2017-08-04T03:31:44.240Z,21.40
2017-08-04T03:34:11.796Z,21.40
2017-08-04T03:36:40.066Z,21.20
2017-08-04T03:39:07.544Z,21.20
2017-08-04T03:41:35.087Z,21.30
2017-08-04T03:44:03.344Z,21.20
2017-08-04T03:46:30.862Z,21.20
2017-08-04T03:48:58.387Z,21.30
2017-08-04T03:51:26.634Z,21.30
2017-08-04T03:53:54.221Z,21.20
2017-08-04T03:56:22.493Z,21.30
2017-08-04T03:58:50.737Z,21.30
2017-08-04T04:01:18.200Z,21.30
2017-08-04T04:03:45.714Z,21.40
2017-08-04T04:06:13.194Z,21.40
2017-08-04T04:08:40.703Z,21.40
2017-08-04T04:11:08.981Z,21.40
2017-08-04T04:13:37.254Z,21.30
2017-08-04T04:16:05.533Z,21.20
2017-08-04T04:18:33.805Z,21.20
2017-08-04T04:21:02.051Z,21.20
2017-08-04T04:23:29.526Z,21.20
2017-08-04T04:25:57.012Z,21.30
2017-08-04T04:28:25.253Z,21.30
2017-08-04T04:30:52.841Z,21.20
2017-08-04T04:33:21.117Z,21.30
2017-08-04T04:35:49.492Z,21.40
2017-08-04T04:38:17.770Z,21.30
2017-08-04T04:40:46.047Z,21.30
2017-08-04T04:43:13.606Z,21.30
2017-08-04T04:45:41.866Z,21.40
2017-08-04T04:48:09.437Z,21.40
2017-08-04T04:50:37.679Z,21.50
2017-08-04T04:53:05.181Z,21.50
2017-08-04T04:55:33.464Z,21.60
2017-08-04T04:58:01.011Z,21.60
2017-08-04T05:00:29.292Z,21.70
2017-08-04T05:02:56.794Z,21.70
2017-08-04T05:05:24.264Z,21.70
2017-08-04T05:07:51.860Z,21.80
2017-08-04T05:10:20.142Z,21.80
2017-08-04T05:12:53.775Z,21.90
2017-08-04T05:18:14.168Z,21.90
2017-08-04T05:20:42.428Z,22.00
2017-08-04T05:23:10.742Z,21.80
2017-08-04T05:28:31.086Z,21.90
2017-08-04T05:30:58.565Z,22.00
2017-08-04T05:33:26.127Z,21.90
2017-08-04T05:35:53.705Z,21.80
2017-08-04T05:38:21.972Z,21.90
2017-08-04T05:40:49.521Z,21.90
2017-08-04T05:43:17.772Z,22.00
2017-08-04T05:45:45.254Z,22.00
2017-08-04T05:48:12.818Z,21.90
2017-08-04T05:50:41.102Z,22.00
2017-08-04T05:53:09.372Z,22.00
2017-08-04T05:55:37.658Z,22.00
2017-08-04T05:58:05.914Z,22.10
2017-08-04T06:00:33.407Z,22.10
2017-08-04T06:03:00.952Z,22.20
2017-08-04T06:05:29.229Z,22.10
2017-08-04T06:07:57.510Z,22.20
2017-08-04T06:10:25.871Z,22.20
2017-08-04T06:12:56.577Z,22.20
2017-08-04T06:15:24.051Z,22.20
2017-08-04T06:17:51.548Z,22.40
2017-08-04T06:20:19.043Z,22.50
2017-08-04T06:22:46.545Z,22.70
2017-08-04T06:25:14.785Z,22.70
2017-08-04T06:27:42.386Z,22.70
2017-08-04T06:30:10.666Z,23.00
2017-08-04T06:32:38.224Z,22.90
2017-08-04T06:35:06.525Z,23.10
2017-08-04T06:37:34.049Z,23.10
2017-08-04T06:40:02.293Z,23.30
2017-08-04T06:42:29.809Z,23.30
2017-08-04T06:44:57.289Z,23.30
2017-08-04T06:47:24.788Z,23.30
2017-08-04T06:50:04.358Z,23.40
2017-08-04T06:52:43.976Z,23.60
2017-08-04T06:55:20.306Z,23.50
2017-08-04T06:57:47.810Z,23.70
2017-08-04T07:00:16.087Z,23.90
2017-08-04T07:02:44.365Z,23.80
2017-08-04T07:05:11.890Z,23.80
2017-08-04T07:07:39.393Z,23.90
2017-08-04T07:10:07.070Z,23.80
2017-08-04T07:12:34.607Z,23.80
2017-08-04T07:15:02.874Z,24.00
2017-08-04T07:17:31.123Z,24.00
2017-08-04T07:19:58.706Z,24.00
2017-08-04T07:22:26.999Z,24.40
2017-08-04T07:24:54.542Z,24.40
2017-08-04T07:27:22.799Z,24.60
2017-08-04T07:29:50.276Z,24.60
2017-08-04T07:32:18.560Z,24.40
2017-08-04T07:34:46.827Z,24.40
2017-08-04T07:37:14.329Z,24.30
2017-08-04T07:39:41.862Z,24.50
2017-08-04T07:42:09.415Z,24.50
2017-08-04T07:44:37.682Z,24.90
2017-08-04T07:47:05.929Z,24.80
2017-08-04T07:49:33.434Z,24.80
2017-08-04T07:52:01.790Z,24.80
2017-08-04T07:54:30.029Z,24.90
2017-08-04T07:56:57.627Z,24.90
2017-08-04T07:59:25.916Z,24.70
2017-08-04T08:01:54.144Z,24.70
2017-08-04T08:04:21.636Z,24.70
2017-08-04T08:06:49.132Z,25.00
2017-08-04T08:09:16.610Z,25.10
2017-08-04T08:11:44.089Z,25.30
2017-08-04T08:14:11.597Z,25.60
2017-08-04T08:16:39.076Z,25.70
2017-08-04T08:19:06.586Z,25.60
2017-08-04T08:21:34.864Z,25.60
2017-08-04T08:24:02.426Z,25.60
2017-08-04T08:26:30.754Z,25.40
2017-08-04T08:28:58.263Z,25.40
2017-08-04T08:31:26.526Z,25.30
2017-08-04T08:33:54.094Z,25.30
2017-08-04T08:36:22.372Z,25.50
2017-08-04T08:38:50.623Z,25.30
2017-08-04T08:41:18.208Z,25.30
2017-08-04T08:43:46.486Z,25.60
2017-08-04T08:46:14.753Z,25.80
2017-08-04T08:48:42.309Z,25.80
2017-08-04T08:51:09.787Z,25.90
2017-08-04T08:53:38.029Z,26.00
2017-08-04T08:56:05.629Z,26.00
2017-08-04T08:58:33.909Z,26.00
2017-08-04T09:01:02.274Z,26.10
2017-08-04T09:03:30.517Z,26.00
2017-08-04T09:05:57.997Z,26.00
2017-08-04T09:08:26.279Z,26.20
2017-08-04T09:10:54.523Z,26.50
2017-08-04T09:13:22.093Z,26.50
2017-08-04T09:15:49.696Z,26.70
2017-08-04T09:18:17.181Z,26.80
2017-08-04T09:20:44.666Z,26.80
2017-08-04T09:23:12.155Z,26.60
2017-08-04T09:25:40.432Z,26.10
2017-08-04T09:28:08.678Z,26.10
2017-08-04T09:30:36.149Z,26.10
2017-08-04T09:33:03.723Z,25.90
2017-08-04T09:35:31.997Z,26.00
2017-08-04T09:37:59.562Z,25.90
2017-08-04T09:40:27.814Z,25.80
2017-08-04T09:42:56.088Z,25.80
2017-08-04T09:45:23.570Z,25.80
2017-08-04T09:47:51.826Z,25.90
2017-08-04T09:50:19.399Z,25.90
2017-08-04T09:52:47.638Z,25.80
2017-08-04T09:55:15.114Z,25.80
2017-08-04T09:57:42.692Z,26.00
2017-08-04T10:00:11.075Z,25.60
2017-08-04T10:02:39.348Z,25.40
2017-08-04T10:05:07.603Z,25.30
2017-08-04T10:07:35.200Z,25.20
2017-08-04T10:10:03.450Z,25.60
2017-08-04T10:12:31.011Z,25.50
2017-08-04T10:14:58.487Z,25.50
2017-08-04T10:17:26.766Z,25.40
2017-08-04T10:19:55.047Z,25.50
2017-08-04T10:22:22.540Z,25.50
2017-08-04T10:24:50.060Z,25.60
2017-08-04T10:27:18.316Z,25.80
2017-08-04T10:29:46.601Z,25.80
2017-08-04T10:32:14.874Z,25.80
2017-08-04T10:34:43.154Z,25.60
2017-08-04T10:37:11.419Z,25.90
2017-08-04T10:39:38.983Z,25.90
2017-08-04T10:42:07.265Z,26.00
2017-08-04T10:44:35.526Z,26.20
2017-08-04T10:47:03.018Z,26.20
2017-08-04T10:49:30.556Z,26.30
2017-08-04T10:51:58.796Z,26.30
2017-08-04T10:54:26.397Z,26.30
2017-08-04T10:56:54.669Z,26.10
2017-08-04T10:59:22.941Z,25.90
2017-08-04T11:01:51.177Z,26.00
2017-08-04T11:04:18.683Z,26.00
2017-08-04T11:06:46.962Z,26.00
2017-08-04T11:09:15.233Z,26.10
2017-08-04T11:11:43.511Z,25.90
2017-08-04T11:14:11.795Z,26.10
2017-08-04T11:16:40.162Z,26.00
2017-08-04T11:19:08.403Z,26.10
2017-08-04T11:21:35.889Z,26.10
2017-08-04T11:24:03.460Z,26.10
2017-08-04T11:26:31.734Z,26.00
2017-08-04T11:29:00.011Z,25.90
2017-08-04T11:31:28.270Z,25.80
2017-08-04T11:33:55.848Z,25.80
2017-08-04T11:36:24.093Z,25.80
2017-08-04T11:38:51.678Z,25.80
2017-08-04T11:41:19.244Z,25.80
2017-08-04T11:43:47.506Z,25.50
2017-08-04T11:46:15.089Z,25.50
2017-08-04T11:48:43.453Z,25.50
2017-08-04T11:51:11.746Z,25.40
2017-08-04T11:53:40.013Z,25.40
2017-08-04T11:56:08.270Z,25.40
2017-08-04T11:58:35.838Z,25.40
2017-08-04T12:01:04.116Z,25.30
2017-08-04T12:03:32.362Z,25.30
2017-08-04T12:05:59.963Z,25.30
2017-08-04T12:08:28.241Z,25.40
2017-08-04T12:10:56.495Z,25.30
2017-08-04T12:13:24.069Z,25.30
2017-08-04T12:15:51.580Z,25.20
2017-08-04T12:18:19.086Z,25.30
2017-08-04T12:20:47.353Z,25.60
2017-08-04T12:23:14.922Z,25.60
2017-08-04T12:25:43.306Z,25.90
2017-08-04T12:28:11.572Z,25.80
2017-08-04T12:30:39.845Z,25.80
2017-08-04T12:33:07.342Z,25.80
2017-08-04T12:35:34.870Z,25.80
2017-08-04T12:38:03.131Z,25.60
2017-08-04T12:40:30.710Z,25.60
2017-08-04T12:42:58.956Z,25.40
2017-08-04T12:45:26.436Z,25.40
2017-08-04T12:47:53.923Z,25.50
2017-08-04T12:50:21.463Z,25.60
2017-08-04T12:52:49.701Z,25.50
2017-08-04T12:55:17.294Z,25.50
2017-08-04T12:57:45.571Z,25.60
2017-08-04T13:00:13.849Z,25.40
2017-08-04T13:02:42.122Z,25.30
2017-08-04T13:05:10.574Z,25.40
2017-08-04T13:07:38.062Z,25.40
2017-08-04T13:10:06.455Z,25.30
2017-08-04T13:12:33.931Z,25.30
2017-08-04T13:15:01.470Z,25.20
2017-08-04T13:17:29.015Z,25.20
2017-08-04T13:19:56.489Z,25.10
2017-08-04T13:22:24.038Z,24.90
2017-08-04T13:24:52.327Z,24.90
2017-08-04T13:27:19.792Z,24.90
2017-08-04T13:29:47.285Z,24.90
2017-08-04T13:32:14.789Z,24.80
2017-08-04T13:34:43.042Z,24.90
2017-08-04T13:37:10.615Z,24.90
2017-08-04T13:39:38.880Z,24.70
2017-08-04T13:42:06.445Z,24.70
2017-08-04T13:44:34.010Z,24.80
2017-08-04T13:47:02.398Z,25.00
2017-08-04T13:49:30.662Z,25.20
2017-08-04T13:51:58.939Z,25.40
2017-08-04T13:54:27.217Z,25.40
2017-08-04T13:56:55.509Z,25.60
2017-08-04T13:59:23.775Z,25.80
2017-08-04T14:01:52.065Z,26.00
2017-08-04T14:04:19.610Z,26.00
2017-08-04T14:06:47.886Z,26.20
2017-08-04T14:09:16.164Z,26.10
2017-08-04T14:11:44.430Z,26.20
2017-08-04T14:14:12.005Z,26.20
2017-08-04T14:16:40.264Z,26.20
2017-08-04T14:19:07.763Z,26.20
2017-08-04T14:21:35.296Z,26.40
2017-08-04T14:24:03.567Z,26.30
2017-08-04T14:26:31.845Z,26.40
2017-08-04T14:29:00.118Z,26.30
2017-08-04T14:31:28.394Z,26.50
2017-08-04T14:33:57.498Z,26.70
2017-08-04T14:36:25.761Z,26.70
2017-08-04T14:38:54.055Z,26.80
2017-08-04T14:41:22.322Z,27.00
2017-08-04T14:43:50.585Z,27.00
2017-08-04T14:46:18.083Z,27.00
2017-08-04T14:48:45.708Z,26.90
2017-08-04T14:51:13.195Z,26.80
2017-08-04T14:53:40.674Z,26.90
2017-08-04T14:56:08.186Z,26.80
2017-08-04T14:58:36.470Z,26.60
2017-08-04T15:01:04.741Z,26.80
2017-08-04T15:03:32.301Z,26.80
2017-08-04T15:06:00.557Z,26.50
2017-08-04T15:08:28.072Z,26.50
2017-08-04T15:10:55.605Z,26.20
2017-08-04T15:13:23.894Z,25.90
2017-08-04T15:15:51.424Z,25.80
2017-08-04T15:18:19.007Z,25.80
2017-08-04T15:20:46.529Z,25.70
2017-08-04T15:23:14.005Z,25.80
2017-08-04T15:25:42.242Z,26.10
2017-08-04T15:28:09.735Z,26.10
2017-08-04T15:30:37.299Z,26.40
2017-08-04T15:33:11.299Z,26.80
2017-08-04T15:35:38.781Z,26.80
2017-08-04T15:38:07.037Z,26.50
2017-08-04T15:40:34.503Z,26.40
2017-08-04T15:43:02.793Z,26.30
2017-08-04T15:45:31.046Z,26.20
2017-08-04T15:47:58.619Z,26.20
2017-08-04T15:50:26.894Z,26.30
2017-08-04T15:52:55.143Z,26.40
2017-08-04T15:55:22.642Z,26.40
2017-08-04T15:57:50.122Z,26.50
2017-08-04T16:00:17.641Z,26.40
2017-08-04T16:02:45.909Z,26.30
2017-08-04T16:05:13.681Z,26.20
2017-08-04T16:07:41.973Z,26.30
2017-08-04T16:10:10.243Z,26.40
2017-08-04T16:12:38.516Z,26.50
2017-08-04T16:15:06.789Z,26.60
2017-08-04T16:17:35.036Z,26.70
2017-08-04T16:20:02.522Z,26.70
2017-08-04T16:22:30.800Z,27.00
2017-08-04T16:24:59.075Z,26.70
2017-08-04T16:27:27.370Z,26.40
2017-08-04T16:29:54.907Z,26.40
2017-08-04T16:32:23.177Z,26.20
2017-08-04T16:34:50.744Z,26.30
2017-08-04T16:37:19.026Z,26.70
2017-08-04T16:39:47.297Z,27.50
2017-08-04T16:42:15.578Z,28.50
2017-08-04T16:44:43.804Z,29.00
2017-08-04T16:47:11.293Z,29.00
2017-08-04T16:49:38.774Z,29.00
2017-08-04T16:52:07.029Z,27.30
2017-08-04T16:54:34.599Z,27.30
2017-08-04T16:57:02.881Z,26.70
2017-08-04T16:59:31.139Z,26.30
2017-08-04T17:01:58.716Z,26.30
2017-08-04T17:04:26.991Z,26.10
2017-08-04T17:06:55.271Z,26.30
2017-08-04T17:09:23.543Z,27.00
2017-08-04T17:11:51.806Z,27.00
2017-08-04T17:14:19.281Z,27.00
2017-08-04T17:16:47.558Z,27.20
2017-08-04T17:19:15.832Z,27.00
2017-08-04T17:21:44.212Z,26.80
2017-08-04T17:24:12.459Z,26.50
2017-08-04T17:26:40.051Z,26.40
2017-08-04T17:29:08.319Z,26.00
2017-08-04T17:31:36.594Z,25.90
2017-08-04T17:34:04.869Z,25.50
2017-08-04T17:36:32.345Z,25.50
2017-08-04T17:38:59.886Z,25.40
2017-08-04T17:41:28.166Z,25.00
2017-08-04T17:43:56.434Z,24.90
2017-08-04T17:46:24.720Z,24.80
2017-08-04T17:48:52.988Z,24.80
2017-08-04T17:51:20.570Z,24.80
2017-08-04T17:53:48.847Z,24.50
2017-08-04T17:56:16.396Z,24.50
2017-08-04T17:58:44.663Z,24.40
2017-08-04T18:01:12.903Z,24.30
2017-08-04T18:03:40.421Z,24.30
2017-08-04T18:06:07.964Z,24.20
2017-08-04T18:08:36.207Z,24.10
2017-08-04T18:11:03.697Z,24.10
2017-08-04T18:13:31.969Z,24.10
2017-08-04T18:16:00.239Z,24.00
2017-08-04T18:18:27.863Z,24.00
2017-08-04T18:20:55.491Z,23.90
2017-08-04T18:23:23.026Z,23.80
2017-08-04T18:25:51.301Z,23.60
2017-08-04T18:28:19.549Z,23.50
2017-08-04T18:30:47.145Z,23.50
2017-08-04T18:33:15.382Z,23.50
2017-08-04T18:35:44.117Z,23.50
2017-08-04T18:38:11.598Z,23.60
2017-08-04T18:40:39.113Z,23.50
2017-08-04T18:43:07.397Z,23.20
2017-08-04T18:48:27.090Z,23.20
2017-08-04T18:50:55.357Z,23.20
2017-08-04T18:53:23.644Z,23.20
2017-08-04T18:55:52.253Z,23.20
2017-08-04T18:58:19.826Z,23.20
2017-08-04T19:00:47.333Z,23.20
2017-08-04T19:03:14.901Z,23.10
2017-08-04T19:05:43.142Z,23.00
2017-08-04T19:08:10.729Z,22.90
2017-08-04T19:10:38.298Z,22.90
2017-08-04T19:13:06.576Z,22.60
2017-08-04T19:15:34.819Z,22.50
2017-08-04T19:18:02.300Z,22.40
2017-08-04T19:20:29.795Z,22.40
2017-08-04T19:22:57.323Z,22.20
2017-08-04T19:25:25.639Z,22.10
2017-08-04T19:27:53.172Z,22.00
2017-08-04T19:30:20.719Z,22.00
2017-08-04T19:32:48.988Z,21.90
2017-08-04T19:35:16.516Z,21.90
2017-08-04T19:37:44.011Z,21.90
2017-08-04T19:40:11.600Z,21.90
2017-08-04T19:42:39.075Z,21.80
2017-08-04T19:45:06.573Z,21.70
2017-08-04T19:47:34.215Z,21.80
2017-08-04T19:50:01.807Z,21.70
2017-08-04T19:52:29.379Z,21.90
2017-08-04T19:54:57.645Z,21.80
2017-08-04T19:57:25.966Z,21.70
2017-08-04T19:59:53.491Z,21.70
2017-08-04T20:02:22.352Z,21.70
2017-08-04T20:04:49.940Z,21.70
2017-08-04T20:07:18.202Z,21.50
2017-08-04T20:09:45.678Z,21.50
2017-08-04T20:12:13.953Z,21.40
2017-08-04T20:14:42.227Z,21.50
2017-08-04T20:17:10.503Z,21.50
2017-08-04T20:19:38.851Z,21.40
2017-08-04T20:22:06.438Z,21.40
2017-08-04T20:24:34.707Z,21.40
2017-08-04T20:27:02.997Z,21.30
2017-08-04T20:29:31.225Z,21.30
2017-08-04T20:31:58.733Z,21.30
2017-08-04T20:34:27.009Z,21.00
2017-08-04T20:36:54.596Z,21.00
2017-08-04T20:39:22.127Z,20.80
2017-08-04T20:41:50.394Z,20.90
2017-08-04T20:44:18.663Z,21.00
2017-08-04T20:46:46.236Z,20.90
2017-08-04T20:49:13.793Z,20.90
2017-08-04T20:51:42.037Z,20.90
2017-08-04T20:54:09.665Z,20.90
2017-08-04T20:56:37.177Z,21.00
2017-08-04T20:59:04.740Z,21.00
2017-08-04T21:01:32.984Z,20.60
2017-08-04T21:04:00.589Z,20.60
2017-08-04T21:06:28.862Z,20.30
2017-08-04T21:08:56.416Z,20.30
2017-08-04T21:11:24.690Z,20.50
2017-08-04T21:13:55.389Z,20.50
2017-08-04T21:16:23.021Z,20.50
2017-08-04T21:18:50.596Z,20.50
2017-08-04T21:21:18.102Z,20.50
2017-08-04T21:23:46.343Z,20.50
2017-08-04T21:26:13.834Z,20.50
2017-08-04T21:28:41.403Z,20.50
2017-08-04T21:31:08.963Z,20.50
2017-08-04T21:33:37.204Z,20.40
2017-08-04T21:36:04.705Z,20.40
2017-08-04T21:38:32.255Z,20.40
2017-08-04T21:41:00.539Z,20.50
2017-08-04T21:43:28.803Z,20.50
2017-08-04T21:45:57.070Z,20.40
2017-08-04T21:48:24.648Z,20.40
2017-08-04T21:50:52.918Z,20.40
2017-08-04T21:53:21.194Z,20.30
2017-08-04T21:55:48.749Z,20.30
2017-08-04T21:58:16.311Z,20.30
2017-08-04T22:00:44.545Z,20.30
2017-08-04T22:03:12.138Z,20.30
2017-08-04T22:05:39.709Z,20.30
2017-08-04T22:08:07.990Z,20.10
2017-08-04T22:10:36.264Z,20.00
2017-08-04T22:13:04.646Z,20.00
2017-08-04T22:15:32.894Z,20.00
2017-08-04T22:18:00.371Z,19.90
2017-08-04T22:20:28.658Z,20.00
2017-08-04T22:22:56.911Z,19.90
2017-08-04T22:25:24.482Z,19.90
2017-08-04T22:27:52.760Z,19.90
2017-08-04T22:30:21.047Z,19.50
2017-08-04T22:32:49.318Z,19.60
2017-08-04T22:35:18.010Z,19.70
2017-08-04T22:37:46.276Z,19.80
2017-08-04T22:40:14.554Z,19.80
2017-08-04T22:42:42.834Z,19.80
2017-08-04T22:45:11.068Z,19.80
2017-08-04T22:47:38.562Z,19.80
2017-08-04T22:50:06.847Z,19.70
2017-08-04T22:52:35.115Z,19.60
2017-08-04T22:55:03.398Z,19.70
2017-08-04T22:57:31.637Z,19.70
2017-08-04T22:59:59.101Z,19.70
2017-08-04T23:02:27.402Z,19.70
2017-08-04T23:04:55.646Z,19.50
2017-08-04T23:07:23.129Z,19.50
2017-08-04T23:09:50.694Z,19.60
2017-08-04T23:12:18.975Z,19.50
2017-08-04T23:14:47.243Z,19.50
2017-08-04T23:17:15.491Z,19.60
2017-08-04T23:19:43.090Z,19.60
2017-08-04T23:22:11.354Z,19.50
2017-08-04T23:24:39.629Z,19.50
2017-08-04T23:27:07.210Z,19.50
2017-08-04T23:29:35.457Z,19.50
2017-08-04T23:32:03.035Z,19.50
2017-08-04T23:34:30.598Z,19.60
2017-08-04T23:36:58.870Z,19.50
2017-08-04T23:39:27.135Z,19.50
2017-08-04T23:41:54.609Z,19.50
2017-08-04T23:44:22.868Z,19.10
2017-08-04T23:46:50.339Z,19.10
2017-08-04T23:49:18.610Z,19.10
2017-08-04T23:51:46.894Z,19.20
2017-08-04T23:54:15.886Z,19.10
2017-08-04T23:56:44.162Z,19.20
2017-08-04T23:59:12.458Z,19.20
